<?xml version='1.0' encoding='UTF-8'?><gpx version="1.1" creator="JPX - https://github.com/jenetics/jpx" xmlns="http://www.topografix.com/GPX/1/1"><trk><trkseg><trkpt lat="21.827391549714935" lon="100.45602357787301"><ele>1210.0</ele><time>2026-03-29T09:28:49.999Z</time></trkpt><trkpt lat="21.82732509940912" lon="100.45595307377533"><ele>1210.0</ele><time>2026-03-29T09:28:52Z</time></trkpt><trkpt lat="21.827288449343772" lon="100.45586514994932"><ele>1210.0</ele><time>2026-03-29T09:28:54Z</time></trkpt><trkpt lat="21.827254767377795" lon="100.45576945549294"><ele>1210.0</ele><time>2026-03-29T09:28:56Z</time></trkpt><trkpt lat="21.827311767094894" lon="100.45567614650217"><ele>1210.0</ele><time>2026-03-29T09:28:58Z</time></trkpt><trkpt lat="21.827357214403804" lon="100.45560983347707"><ele>1210.0</ele><time>2026-03-29T09:28:59Z</time></trkpt><trkpt lat="21.827417248151026" lon="100.45556193728794"><ele>1210.0</ele><time>2026-03-29T09:29:00Z</time></trkpt><trkpt lat="21.827479015579428" lon="100.45547320182266"><ele>1210.0</ele><time>2026-03-29T09:29:01Z</time></trkpt><trkpt lat="21.82752529207263" lon="100.45536125130336"><ele>1210.0</ele><time>2026-03-29T09:29:02Z</time></trkpt><trkpt lat="21.827584774949727" lon="100.45525353304757"><ele>1210.0</ele><time>2026-03-29T09:29:03Z</time></trkpt><trkpt lat="21.82765811595569" lon="100.45515019818974"><ele>1210.0</ele><time>2026-03-29T09:29:04Z</time></trkpt><trkpt lat="21.827701295985044" lon="100.45501774517629"><ele>1210.0</ele><time>2026-03-29T09:29:05Z</time></trkpt><trkpt lat="21.827740811918776" lon="100.45491443745465"><ele>1210.0</ele><time>2026-03-29T09:29:06Z</time></trkpt><trkpt lat="21.827748675113273" lon="100.45476618661796"><ele>1210.0</ele><time>2026-03-29T09:29:07Z</time></trkpt><trkpt lat="21.827770428357326" lon="100.45467720765997"><ele>1209.5</ele><time>2026-03-29T09:29:08Z</time></trkpt><trkpt lat="21.827778154919937" lon="100.45453661097739"><ele>1209.0</ele><time>2026-03-29T09:29:09Z</time></trkpt><trkpt lat="21.82778564962177" lon="100.45440020925078"><ele>1208.5</ele><time>2026-03-29T09:29:10Z</time></trkpt><trkpt lat="21.827749279472428" lon="100.45429034087783"><ele>1208.0</ele><time>2026-03-29T09:29:11Z</time></trkpt><trkpt lat="21.827738230178376" lon="100.45416588283125"><ele>1208.0</ele><time>2026-03-29T09:29:12Z</time></trkpt><trkpt lat="21.827694092702178" lon="100.45403462916228"><ele>1208.0</ele><time>2026-03-29T09:29:13Z</time></trkpt><trkpt lat="21.827655002303093" lon="100.45390209801195"><ele>1208.0</ele><time>2026-03-29T09:29:14Z</time></trkpt><trkpt lat="21.827614763205652" lon="100.45376465217116"><ele>1208.0</ele><time>2026-03-29T09:29:15Z</time></trkpt><trkpt lat="21.827573125104916" lon="100.45362253868872"><ele>1208.0</ele><time>2026-03-29T09:29:16Z</time></trkpt><trkpt lat="21.8275290881917" lon="100.45347223744082"><ele>1208.0</ele><time>2026-03-29T09:29:17Z</time></trkpt><trkpt lat="21.827483639277794" lon="100.45331711612198"><ele>1208.0</ele><time>2026-03-29T09:29:18Z</time></trkpt><trkpt lat="21.827435491002454" lon="100.45315277851049"><ele>1208.0</ele><time>2026-03-29T09:29:19Z</time></trkpt><trkpt lat="21.827387867708843" lon="100.45299022970843"><ele>1208.0</ele><time>2026-03-29T09:29:20Z</time></trkpt><trkpt lat="21.827363690727434" lon="100.45284332732967"><ele>1208.0</ele><time>2026-03-29T09:29:21Z</time></trkpt><trkpt lat="21.82735216829497" lon="100.45271057908492"><ele>1208.0</ele><time>2026-03-29T09:29:22Z</time></trkpt><trkpt lat="21.827341928185835" lon="100.45259256906976"><ele>1207.75</ele><time>2026-03-29T09:29:23Z</time></trkpt><trkpt lat="21.827388249716893" lon="100.45248720998977"><ele>1207.5</ele><time>2026-03-29T09:29:24Z</time></trkpt><trkpt lat="21.827422488528196" lon="100.45235726753045"><ele>1207.25</ele><time>2026-03-29T09:29:25Z</time></trkpt><trkpt lat="21.827468791316747" lon="100.45222756650918"><ele>1207.0</ele><time>2026-03-29T09:29:26Z</time></trkpt><trkpt lat="21.82751776971512" lon="100.45208647668223"><ele>1207.0</ele><time>2026-03-29T09:29:27Z</time></trkpt><trkpt lat="21.827563755086157" lon="100.45193945765295"><ele>1207.0</ele><time>2026-03-29T09:29:28Z</time></trkpt><trkpt lat="21.827633339232765" lon="100.45179623603501"><ele>1207.0</ele><time>2026-03-29T09:29:29Z</time></trkpt><trkpt lat="21.82768701055559" lon="100.45164475716443"><ele>1207.0</ele><time>2026-03-29T09:29:30Z</time></trkpt><trkpt lat="21.827742387375604" lon="100.45148458843295"><ele>1206.6666666666665</ele><time>2026-03-29T09:29:31Z</time></trkpt><trkpt lat="21.827779932406855" lon="100.45131734646105"><ele>1206.3333333333333</ele><time>2026-03-29T09:29:32Z</time></trkpt><trkpt lat="21.827808648892763" lon="100.451142366267"><ele>1206.0</ele><time>2026-03-29T09:29:33Z</time></trkpt><trkpt lat="21.827836524207125" lon="100.45096506422996"><ele>1206.0</ele><time>2026-03-29T09:29:34Z</time></trkpt><trkpt lat="21.827864878348223" lon="100.45078432810637"><ele>1206.0</ele><time>2026-03-29T09:29:35Z</time></trkpt><trkpt lat="21.827912795031637" lon="100.45061100480115"><ele>1206.0</ele><time>2026-03-29T09:29:36Z</time></trkpt><trkpt lat="21.827944253830847" lon="100.45045451561928"><ele>1206.0</ele><time>2026-03-29T09:29:37Z</time></trkpt><trkpt lat="21.827974477503385" lon="100.45030417465811"><ele>1206.0</ele><time>2026-03-29T09:29:38Z</time></trkpt><trkpt lat="21.828006172807836" lon="100.45014650842379"><ele>1206.0</ele><time>2026-03-29T09:29:39Z</time></trkpt><trkpt lat="21.828038500402183" lon="100.44998570198004"><ele>1206.0</ele><time>2026-03-29T09:29:40Z</time></trkpt><trkpt lat="21.828044367251845" lon="100.44980891524136"><ele>1206.0</ele><time>2026-03-29T09:29:41Z</time></trkpt><trkpt lat="21.828051326918533" lon="100.449634809165"><ele>1206.0</ele><time>2026-03-29T09:29:42Z</time></trkpt><trkpt lat="21.828058282269268" lon="100.4494608241689"><ele>1206.0</ele><time>2026-03-29T09:29:43Z</time></trkpt><trkpt lat="21.828036640638583" lon="100.4492772799372"><ele>1206.0</ele><time>2026-03-29T09:29:44Z</time></trkpt><trkpt lat="21.828072876540457" lon="100.44909526810531"><ele>1206.0</ele><time>2026-03-29T09:29:45Z</time></trkpt><trkpt lat="21.828080221484385" lon="100.44891133088308"><ele>1206.0</ele><time>2026-03-29T09:29:46Z</time></trkpt><trkpt lat="21.828087159445648" lon="100.44872916036448"><ele>1206.0</ele><time>2026-03-29T09:29:47Z</time></trkpt><trkpt lat="21.82809425031598" lon="100.44854878894999"><ele>1206.0</ele><time>2026-03-29T09:29:48Z</time></trkpt><trkpt lat="21.828067794936434" lon="100.44835231660277"><ele>1206.0</ele><time>2026-03-29T09:29:49Z</time></trkpt><trkpt lat="21.82804572702214" lon="100.4481727870549"><ele>1206.0</ele><time>2026-03-29T09:29:50Z</time></trkpt><trkpt lat="21.828034115887288" lon="100.44798535094601"><ele>1206.0</ele><time>2026-03-29T09:29:51Z</time></trkpt><trkpt lat="21.828000094098886" lon="100.4478032345615"><ele>1206.0</ele><time>2026-03-29T09:29:52Z</time></trkpt><trkpt lat="21.827951544695626" lon="100.44762285428243"><ele>1206.0</ele><time>2026-03-29T09:29:53Z</time></trkpt><trkpt lat="21.827906962075108" lon="100.44744039736783"><ele>1206.0</ele><time>2026-03-29T09:29:54Z</time></trkpt><trkpt lat="21.827889534791026" lon="100.44724567473874"><ele>1206.0</ele><time>2026-03-29T09:29:55Z</time></trkpt><trkpt lat="21.827837893901144" lon="100.44706154065064"><ele>1205.3333333333333</ele><time>2026-03-29T09:29:56Z</time></trkpt><trkpt lat="21.827785837865683" lon="100.44687592292028"><ele>1204.6666666666665</ele><time>2026-03-29T09:29:57Z</time></trkpt><trkpt lat="21.827733106977963" lon="100.44668781380969"><ele>1204.0</ele><time>2026-03-29T09:29:57.999Z</time></trkpt><trkpt lat="21.82768128523462" lon="100.44650290554573"><ele>1204.3333333333333</ele><time>2026-03-29T09:29:58.999Z</time></trkpt><trkpt lat="21.827632934038704" lon="100.44633037788503"><ele>1204.6666666666667</ele><time>2026-03-29T09:29:59.999Z</time></trkpt><trkpt lat="21.827586150604127" lon="100.44616344189859"><ele>1205.0</ele><time>2026-03-29T09:30:00.999Z</time></trkpt><trkpt lat="21.827544853098217" lon="100.44601607872187"><ele>1205.0</ele><time>2026-03-29T09:30:01.999Z</time></trkpt><trkpt lat="21.82751279722952" lon="100.44589163592508"><ele>1205.0</ele><time>2026-03-29T09:30:02.999Z</time></trkpt><trkpt lat="21.827484948683654" lon="100.44578252134419"><ele>1205.0</ele><time>2026-03-29T09:30:03.999Z</time></trkpt><trkpt lat="21.827459157608192" lon="100.44568146660781"><ele>1205.0</ele><time>2026-03-29T09:30:04.999Z</time></trkpt><trkpt lat="21.827433926119912" lon="100.44558260371693"><ele>1205.0</ele><time>2026-03-29T09:30:05.999Z</time></trkpt><trkpt lat="21.827406973282546" lon="100.44547699553848"><ele>1205.0</ele><time>2026-03-29T09:30:06.999Z</time></trkpt><trkpt lat="21.827382410304214" lon="100.4453807508549"><ele>1205.0</ele><time>2026-03-29T09:30:07.999Z</time></trkpt><trkpt lat="21.827355153954127" lon="100.44529442261094"><ele>1205.0</ele><time>2026-03-29T09:30:08.999Z</time></trkpt><trkpt lat="21.8273231988709" lon="100.44519598661098"><ele>1205.0</ele><time>2026-03-29T09:30:09.999Z</time></trkpt><trkpt lat="21.82728613297442" lon="100.44508180609122"><ele>1205.0</ele><time>2026-03-29T09:30:10.999Z</time></trkpt><trkpt lat="21.82724663277875" lon="100.444960125617"><ele>1205.0</ele><time>2026-03-29T09:30:11.999Z</time></trkpt><trkpt lat="21.827203333261842" lon="100.44482985530307"><ele>1205.0</ele><time>2026-03-29T09:30:12.999Z</time></trkpt><trkpt lat="21.827155274862182" lon="100.44469785718287"><ele>1205.0</ele><time>2026-03-29T09:30:13.999Z</time></trkpt><trkpt lat="21.82710432693644" lon="100.44455792141554"><ele>1205.0</ele><time>2026-03-29T09:30:14.999Z</time></trkpt><trkpt lat="21.827051016977876" lon="100.4444114966019"><ele>1204.6666666666667</ele><time>2026-03-29T09:30:15.999Z</time></trkpt><trkpt lat="21.826996632546" lon="100.4442621191191"><ele>1204.3333333333333</ele><time>2026-03-29T09:30:16.999Z</time></trkpt><trkpt lat="21.826939022580103" lon="100.44410388050325"><ele>1204.0</ele><time>2026-03-29T09:30:17.999Z</time></trkpt><trkpt lat="21.826882915329325" lon="100.44394976755292"><ele>1204.0</ele><time>2026-03-29T09:30:18.999Z</time></trkpt><trkpt lat="21.826834945345148" lon="100.4438180047896"><ele>1204.0</ele><time>2026-03-29T09:30:19.999Z</time></trkpt><trkpt lat="21.8267913693249" lon="100.4436983103784"><ele>1204.0</ele><time>2026-03-29T09:30:20.999Z</time></trkpt><trkpt lat="21.82675068336317" lon="100.4435853652289"><ele>1204.0</ele><time>2026-03-29T09:30:21.999Z</time></trkpt><trkpt lat="21.826711603721133" lon="100.44347334022795"><ele>1204.2</ele><time>2026-03-29T09:30:22.999Z</time></trkpt><trkpt lat="21.82667415087351" lon="100.44336597773491"><ele>1204.4</ele><time>2026-03-29T09:30:23.999Z</time></trkpt><trkpt lat="21.82663711557319" lon="100.4432598113804"><ele>1204.6</ele><time>2026-03-29T09:30:24.999Z</time></trkpt><trkpt lat="21.826600264932587" lon="100.44315417358693"><ele>1204.8</ele><time>2026-03-29T09:30:25.999Z</time></trkpt><trkpt lat="21.826563641465633" lon="100.44304918624542"><ele>1205.0</ele><time>2026-03-29T09:30:26.999Z</time></trkpt><trkpt lat="21.82653071851012" lon="100.44295480636593"><ele>1204.7142857142858</ele><time>2026-03-29T09:30:27.999Z</time></trkpt><trkpt lat="21.826502312123104" lon="100.44287337353425"><ele>1204.4285714285713</ele><time>2026-03-29T09:30:28.999Z</time></trkpt><trkpt lat="21.826476777115975" lon="100.4428001717776"><ele>1204.142857142857</ele><time>2026-03-29T09:30:29.999Z</time></trkpt><trkpt lat="21.826450765806765" lon="100.44272560422958"><ele>1203.857142857143</ele><time>2026-03-29T09:30:30.999Z</time></trkpt><trkpt lat="21.826423992532824" lon="100.44264885189261"><ele>1203.5714285714287</ele><time>2026-03-29T09:30:31.999Z</time></trkpt><trkpt lat="21.826401002313094" lon="100.44258294426189"><ele>1203.2857142857142</ele><time>2026-03-29T09:30:32.999Z</time></trkpt><trkpt lat="21.82637680703771" lon="100.44251358171026"><ele>1203.0</ele><time>2026-03-29T09:30:33.999Z</time></trkpt><trkpt lat="21.82635374122107" lon="100.44244254984865"><ele>1203.0</ele><time>2026-03-29T09:30:34.999Z</time></trkpt><trkpt lat="21.8263277576425" lon="100.4423607784973"><ele>1203.0</ele><time>2026-03-29T09:30:35.999Z</time></trkpt><trkpt lat="21.82629962750239" lon="100.44226995262896"><ele>1203.0</ele><time>2026-03-29T09:30:36.999Z</time></trkpt><trkpt lat="21.826263312015165" lon="100.44218947292894"><ele>1203.0</ele><time>2026-03-29T09:30:37.999Z</time></trkpt><trkpt lat="21.826224473003386" lon="100.44210340089863"><ele>1203.0</ele><time>2026-03-29T09:30:38.999Z</time></trkpt><trkpt lat="21.826181118690883" lon="100.44200732162341"><ele>1203.0</ele><time>2026-03-29T09:30:39.999Z</time></trkpt><trkpt lat="21.82613822130257" lon="100.44191225416807"><ele>1203.0</ele><time>2026-03-29T09:30:40.999Z</time></trkpt><trkpt lat="21.826103449218582" lon="100.44183519308777"><ele>1203.0</ele><time>2026-03-29T09:30:41.999Z</time></trkpt><trkpt lat="21.826067097665497" lon="100.44175463080542"><ele>1203.0</ele><time>2026-03-29T09:30:42.999Z</time></trkpt><trkpt lat="21.82599891369498" lon="100.44169037235088"><ele>1203.0</ele><time>2026-03-29T09:30:43.999Z</time></trkpt><trkpt lat="21.825936909863017" lon="100.44161617411008"><ele>1203.0</ele><time>2026-03-29T09:30:44.999Z</time></trkpt><trkpt lat="21.82586059369735" lon="100.44153175648857"><ele>1203.25</ele><time>2026-03-29T09:30:45.999Z</time></trkpt><trkpt lat="21.82578304064098" lon="100.44144659000189"><ele>1203.5</ele><time>2026-03-29T09:30:47Z</time></trkpt><trkpt lat="21.82571157206421" lon="100.44134142761354"><ele>1203.75</ele><time>2026-03-29T09:30:48Z</time></trkpt><trkpt lat="21.825627506933706" lon="100.44125157346004"><ele>1204.0</ele><time>2026-03-29T09:30:49Z</time></trkpt><trkpt lat="21.825541455829015" lon="100.44115959832024"><ele>1204.0</ele><time>2026-03-29T09:30:50Z</time></trkpt><trkpt lat="21.825451718540215" lon="100.4410636836355"><ele>1204.0</ele><time>2026-03-29T09:30:51Z</time></trkpt><trkpt lat="21.825355125684887" lon="100.44096044010665"><ele>1204.0</ele><time>2026-03-29T09:30:52Z</time></trkpt><trkpt lat="21.82525854361635" lon="100.44085720854702"><ele>1204.0</ele><time>2026-03-29T09:30:53Z</time></trkpt><trkpt lat="21.825173381205964" lon="100.44075122282733"><ele>1204.0</ele><time>2026-03-29T09:30:54Z</time></trkpt><trkpt lat="21.825092259111454" lon="100.44062031961323"><ele>1204.0</ele><time>2026-03-29T09:30:55Z</time></trkpt><trkpt lat="21.825008931243534" lon="100.44048585678061"><ele>1204.0</ele><time>2026-03-29T09:30:56Z</time></trkpt><trkpt lat="21.82492254086165" lon="100.44034645174882"><ele>1203.6666666666665</ele><time>2026-03-29T09:30:57Z</time></trkpt><trkpt lat="21.824846188449794" lon="100.4402064717546"><ele>1203.3333333333333</ele><time>2026-03-29T09:30:58Z</time></trkpt><trkpt lat="21.82478712460862" lon="100.44004232964495"><ele>1203.0</ele><time>2026-03-29T09:30:59Z</time></trkpt><trkpt lat="21.824726751868937" lon="100.43987454743778"><ele>1203.0</ele><time>2026-03-29T09:31:00Z</time></trkpt><trkpt lat="21.82465033330528" lon="100.43971140702855"><ele>1203.0</ele><time>2026-03-29T09:31:01Z</time></trkpt><trkpt lat="21.82459147604018" lon="100.43953636260986"><ele>1203.0</ele><time>2026-03-29T09:31:02Z</time></trkpt><trkpt lat="21.82452683598032" lon="100.43936468239829"><ele>1203.0</ele><time>2026-03-29T09:31:03Z</time></trkpt><trkpt lat="21.824464401508163" lon="100.43918735239832"><ele>1203.0</ele><time>2026-03-29T09:31:04Z</time></trkpt><trkpt lat="21.82440781301467" lon="100.43901747285965"><ele>1203.0</ele><time>2026-03-29T09:31:05Z</time></trkpt><trkpt lat="21.82435073012404" lon="100.4388534178474"><ele>1203.25</ele><time>2026-03-29T09:31:06Z</time></trkpt><trkpt lat="21.824293021546413" lon="100.43869274221913"><ele>1203.5</ele><time>2026-03-29T09:31:07Z</time></trkpt><trkpt lat="21.82423799758119" lon="100.43853995295682"><ele>1203.75</ele><time>2026-03-29T09:31:08Z</time></trkpt><trkpt lat="21.824190150342712" lon="100.43840457854222"><ele>1204.0</ele><time>2026-03-29T09:31:09Z</time></trkpt><trkpt lat="21.824183285122515" lon="100.438278284058"><ele>1204.0</ele><time>2026-03-29T09:31:10Z</time></trkpt><trkpt lat="21.824165790233874" lon="100.4381660516239"><ele>1204.0</ele><time>2026-03-29T09:31:11Z</time></trkpt><trkpt lat="21.824148702296338" lon="100.43805640848964"><ele>1204.0</ele><time>2026-03-29T09:31:12Z</time></trkpt><trkpt lat="21.824130588719523" lon="100.4379401490681"><ele>1204.0</ele><time>2026-03-29T09:31:13Z</time></trkpt><trkpt lat="21.824137611714686" lon="100.43782285304067"><ele>1204.0</ele><time>2026-03-29T09:31:14Z</time></trkpt><trkpt lat="21.824147414894984" lon="100.4376811436998"><ele>1203.75</ele><time>2026-03-29T09:31:15Z</time></trkpt><trkpt lat="21.824157654791403" lon="100.4375330582715"><ele>1203.5</ele><time>2026-03-29T09:31:16Z</time></trkpt><trkpt lat="21.824168163850015" lon="100.43738106705236"><ele>1203.25</ele><time>2026-03-29T09:31:17Z</time></trkpt><trkpt lat="21.82417946582223" lon="100.43721767906139"><ele>1203.0</ele><time>2026-03-29T09:31:18Z</time></trkpt><trkpt lat="21.82419025923285" lon="100.43705093040288"><ele>1202.6666666666667</ele><time>2026-03-29T09:31:19Z</time></trkpt><trkpt lat="21.824199916349542" lon="100.43687930480132"><ele>1202.3333333333335</ele><time>2026-03-29T09:31:20Z</time></trkpt><trkpt lat="21.824209825167753" lon="100.43670332686351"><ele>1202.0</ele><time>2026-03-29T09:31:21Z</time></trkpt><trkpt lat="21.824219787230827" lon="100.43652653507917"><ele>1202.0</ele><time>2026-03-29T09:31:22Z</time></trkpt><trkpt lat="21.824229091048107" lon="100.43636147284155"><ele>1202.0</ele><time>2026-03-29T09:31:23Z</time></trkpt><trkpt lat="21.82423826105192" lon="100.43619864383108"><ele>1202.0</ele><time>2026-03-29T09:31:24Z</time></trkpt><trkpt lat="21.824246215024782" lon="100.43605738088641"><ele>1202.0</ele><time>2026-03-29T09:31:25Z</time></trkpt><trkpt lat="21.8242531739294" lon="100.43593382935798"><ele>1201.8</ele><time>2026-03-29T09:31:26Z</time></trkpt><trkpt lat="21.824260154244232" lon="100.43581021473453"><ele>1201.6</ele><time>2026-03-29T09:31:27Z</time></trkpt><trkpt lat="21.824267031785162" lon="100.43569074939556"><ele>1201.3999999999999</ele><time>2026-03-29T09:31:28Z</time></trkpt><trkpt lat="21.824272836832666" lon="100.43558987980808"><ele>1201.2</ele><time>2026-03-29T09:31:29Z</time></trkpt><trkpt lat="21.82426212850672" lon="100.43550682021828"><ele>1201.0</ele><time>2026-03-29T09:31:30Z</time></trkpt><trkpt lat="21.824269511773945" lon="100.43543053763663"><ele>1201.0</ele><time>2026-03-29T09:31:31Z</time></trkpt><trkpt lat="21.82427280713092" lon="100.43534414978913"><ele>1201.0</ele><time>2026-03-29T09:31:32Z</time></trkpt><trkpt lat="21.824280458824575" lon="100.43525710347231"><ele>1201.0</ele><time>2026-03-29T09:31:33Z</time></trkpt><trkpt lat="21.824286313683153" lon="100.43517266219457"><ele>1201.0</ele><time>2026-03-29T09:31:34Z</time></trkpt><trkpt lat="21.82428902553631" lon="100.43506966261957"><ele>1201.0</ele><time>2026-03-29T09:31:35Z</time></trkpt><trkpt lat="21.824308120006073" lon="100.4349733272032"><ele>1201.0</ele><time>2026-03-29T09:31:36Z</time></trkpt><trkpt lat="21.824313620690088" lon="100.43487511165699"><ele>1201.0</ele><time>2026-03-29T09:31:37Z</time></trkpt><trkpt lat="21.8243197595289" lon="100.43476555682295"><ele>1201.0</ele><time>2026-03-29T09:31:38Z</time></trkpt><trkpt lat="21.82432658789489" lon="100.43464374291669"><ele>1201.0</ele><time>2026-03-29T09:31:39Z</time></trkpt><trkpt lat="21.824333774307803" lon="100.43451560173078"><ele>1201.0</ele><time>2026-03-29T09:31:40Z</time></trkpt><trkpt lat="21.82434145430619" lon="100.43437868245678"><ele>1200.75</ele><time>2026-03-29T09:31:41Z</time></trkpt><trkpt lat="21.82434944222465" lon="100.43423626955989"><ele>1200.5</ele><time>2026-03-29T09:31:42Z</time></trkpt><trkpt lat="21.824357897223273" lon="100.4340855075926"><ele>1200.25</ele><time>2026-03-29T09:31:43Z</time></trkpt><trkpt lat="21.824366673677574" lon="100.43392902709522"><ele>1200.0</ele><time>2026-03-29T09:31:44Z</time></trkpt><trkpt lat="21.82437581522704" lon="100.4337661015848"><ele>1200.6666666666667</ele><time>2026-03-29T09:31:45Z</time></trkpt><trkpt lat="21.82438523618524" lon="100.4335982102265"><ele>1201.3333333333335</ele><time>2026-03-29T09:31:46Z</time></trkpt><trkpt lat="21.824394304712477" lon="100.43343661549449"><ele>1202.0</ele><time>2026-03-29T09:31:47Z</time></trkpt><trkpt lat="21.824404338205735" lon="100.43325790847265"><ele>1202.0</ele><time>2026-03-29T09:31:48Z</time></trkpt><trkpt lat="21.824414017960237" lon="100.43308568490568"><ele>1202.0</ele><time>2026-03-29T09:31:49Z</time></trkpt><trkpt lat="21.824411952392104" lon="100.43290894637265"><ele>1202.0</ele><time>2026-03-29T09:31:50Z</time></trkpt><trkpt lat="21.824433828763105" lon="100.43273285016798"><ele>1201.6666666666667</ele><time>2026-03-29T09:31:51Z</time></trkpt><trkpt lat="21.824444223920146" lon="100.43254771706123"><ele>1201.3333333333333</ele><time>2026-03-29T09:31:52Z</time></trkpt><trkpt lat="21.824454679141333" lon="100.43236156190089"><ele>1201.0</ele><time>2026-03-29T09:31:53Z</time></trkpt><trkpt lat="21.824465143033258" lon="100.43217529724731"><ele>1200.6666666666665</ele><time>2026-03-29T09:31:54Z</time></trkpt><trkpt lat="21.824475888725658" lon="100.43198403230018"><ele>1200.3333333333333</ele><time>2026-03-29T09:31:55Z</time></trkpt><trkpt lat="21.824486465869562" lon="100.43179580159993"><ele>1200.0</ele><time>2026-03-29T09:31:56Z</time></trkpt><trkpt lat="21.824497235680408" lon="100.43160419318633"><ele>1200.0</ele><time>2026-03-29T09:31:57Z</time></trkpt><trkpt lat="21.824508136987554" lon="100.43141027368428"><ele>1200.0</ele><time>2026-03-29T09:31:58Z</time></trkpt><trkpt lat="21.824519186271665" lon="100.43121378453615"><ele>1200.0</ele><time>2026-03-29T09:31:59Z</time></trkpt><trkpt lat="21.824530007758028" lon="100.43102135072384"><ele>1200.0</ele><time>2026-03-29T09:32:00Z</time></trkpt><trkpt lat="21.824540040363356" lon="100.43084291368854"><ele>1200.0</ele><time>2026-03-29T09:32:01Z</time></trkpt><trkpt lat="21.82454971659676" lon="100.43067089599919"><ele>1200.0</ele><time>2026-03-29T09:32:02Z</time></trkpt><trkpt lat="21.82455998772285" lon="100.43048830444465"><ele>1200.0</ele><time>2026-03-29T09:32:03Z</time></trkpt><trkpt lat="21.824569123182652" lon="100.43032594380128"><ele>1200.0</ele><time>2026-03-29T09:32:03.999Z</time></trkpt><trkpt lat="21.82457716309427" lon="100.43018308650176"><ele>1200.0</ele><time>2026-03-29T09:32:04.999Z</time></trkpt><trkpt lat="21.82457094440618" lon="100.43002829862901"><ele>1200.0</ele><time>2026-03-29T09:32:05.999Z</time></trkpt><trkpt lat="21.824580349338728" lon="100.42988387371784"><ele>1200.0</ele><time>2026-03-29T09:32:06.999Z</time></trkpt><trkpt lat="21.824600944318316" lon="100.42976054221648"><ele>1200.0</ele><time>2026-03-29T09:32:07.999Z</time></trkpt><trkpt lat="21.8246075728851" lon="100.42964275975328"><ele>1200.0</ele><time>2026-03-29T09:32:08.999Z</time></trkpt><trkpt lat="21.82457700930751" lon="100.42951471542013"><ele>1200.0</ele><time>2026-03-29T09:32:09.999Z</time></trkpt><trkpt lat="21.8246229861294" lon="100.42936878001944"><ele>1199.75</ele><time>2026-03-29T09:32:10.999Z</time></trkpt><trkpt lat="21.824631694190064" lon="100.42921413910693"><ele>1199.5</ele><time>2026-03-29T09:32:11.999Z</time></trkpt><trkpt lat="21.824640798623182" lon="100.42905245720661"><ele>1199.25</ele><time>2026-03-29T09:32:12.999Z</time></trkpt><trkpt lat="21.82465009777343" lon="100.42888740360269"><ele>1199.0</ele><time>2026-03-29T09:32:13.999Z</time></trkpt><trkpt lat="21.824659488949116" lon="100.42872088059531"><ele>1199.6666666666667</ele><time>2026-03-29T09:32:14.999Z</time></trkpt><trkpt lat="21.824669075830467" lon="100.4285508351104"><ele>1200.3333333333333</ele><time>2026-03-29T09:32:15.999Z</time></trkpt><trkpt lat="21.824680733635642" lon="100.42837931904903"><ele>1201.0</ele><time>2026-03-29T09:32:16.999Z</time></trkpt><trkpt lat="21.824697049495395" lon="100.42820989561625"><ele>1201.0</ele><time>2026-03-29T09:32:17.999Z</time></trkpt><trkpt lat="21.824712439818125" lon="100.42805010140165"><ele>1201.0</ele><time>2026-03-29T09:32:18.999Z</time></trkpt><trkpt lat="21.82472858454368" lon="100.42788250008415"><ele>1201.0</ele><time>2026-03-29T09:32:19.999Z</time></trkpt><trkpt lat="21.824745379391945" lon="100.42770816895953"><ele>1201.0</ele><time>2026-03-29T09:32:20.999Z</time></trkpt><trkpt lat="21.824762632173172" lon="100.42752909895276"><ele>1201.0</ele><time>2026-03-29T09:32:21.999Z</time></trkpt><trkpt lat="21.824779991089788" lon="100.42734890454555"><ele>1201.0</ele><time>2026-03-29T09:32:22.999Z</time></trkpt><trkpt lat="21.82479761769151" lon="100.42716597452431"><ele>1201.0</ele><time>2026-03-29T09:32:23.999Z</time></trkpt><trkpt lat="21.824815458426897" lon="100.42698084267971"><ele>1201.0</ele><time>2026-03-29T09:32:24.999Z</time></trkpt><trkpt lat="21.824833292703715" lon="100.4267957903904"><ele>1201.0</ele><time>2026-03-29T09:32:25.999Z</time></trkpt><trkpt lat="21.824851143645" lon="100.42661059980976"><ele>1201.0</ele><time>2026-03-29T09:32:26.999Z</time></trkpt><trkpt lat="21.824867208379665" lon="100.42644395162846"><ele>1201.0</ele><time>2026-03-29T09:32:27.999Z</time></trkpt><trkpt lat="21.824881903029073" lon="100.42629151392819"><ele>1201.0</ele><time>2026-03-29T09:32:28.999Z</time></trkpt><trkpt lat="21.824896747196213" lon="100.42613755511596"><ele>1201.0</ele><time>2026-03-29T09:32:29.999Z</time></trkpt><trkpt lat="21.82490863396605" lon="100.4260142557167"><ele>1200.6666666666665</ele><time>2026-03-29T09:32:30.999Z</time></trkpt><trkpt lat="21.82491714570848" lon="100.42592596008305"><ele>1200.3333333333333</ele><time>2026-03-29T09:32:31.999Z</time></trkpt><trkpt lat="21.82492768479663" lon="100.42581667349974"><ele>1200.0</ele><time>2026-03-29T09:32:33.999Z</time></trkpt><trkpt lat="21.82493631248895" lon="100.42572723527822"><ele>1199.6666666666667</ele><time>2026-03-29T09:32:36.999Z</time></trkpt><trkpt lat="21.824944644093648" lon="100.42564093684393"><ele>1199.3333333333335</ele><time>2026-03-29T09:32:39.999Z</time></trkpt><trkpt lat="21.824954274724195" lon="100.42554107203058"><ele>1199.0</ele><time>2026-03-29T09:32:41.999Z</time></trkpt><trkpt lat="21.824964919807243" lon="100.42543067911393"><ele>1198.8</ele><time>2026-03-29T09:32:43.999Z</time></trkpt><trkpt lat="21.824971852793105" lon="100.425358813365"><ele>1198.6000000000001</ele><time>2026-03-29T09:32:44.999Z</time></trkpt><trkpt lat="21.824981143873213" lon="100.42526245445558"><ele>1198.4</ele><time>2026-03-29T09:32:45.999Z</time></trkpt><trkpt lat="21.824990768430624" lon="100.42515970220154"><ele>1198.2</ele><time>2026-03-29T09:32:46.999Z</time></trkpt><trkpt lat="21.825001514761155" lon="100.42504642596438"><ele>1198.0</ele><time>2026-03-29T09:32:47.999Z</time></trkpt><trkpt lat="21.825013020853504" lon="100.42492514222154"><ele>1198.0</ele><time>2026-03-29T09:32:48.999Z</time></trkpt><trkpt lat="21.82502519766332" lon="100.42479709110552"><ele>1198.0</ele><time>2026-03-29T09:32:49.999Z</time></trkpt><trkpt lat="21.82503741879029" lon="100.4246701075647"><ele>1198.0</ele><time>2026-03-29T09:32:50.999Z</time></trkpt><trkpt lat="21.825038310244675" lon="100.42454705226906"><ele>1198.0</ele><time>2026-03-29T09:32:51.999Z</time></trkpt><trkpt lat="21.825039570010702" lon="100.42443686449165"><ele>1198.0</ele><time>2026-03-29T09:32:53Z</time></trkpt><trkpt lat="21.82504094155351" lon="100.42431696458534"><ele>1198.0</ele><time>2026-03-29T09:32:54Z</time></trkpt><trkpt lat="21.825042415629817" lon="100.42418783142571"><ele>1198.0</ele><time>2026-03-29T09:32:55Z</time></trkpt><trkpt lat="21.82504389626596" lon="100.42405780440583"><ele>1198.0</ele><time>2026-03-29T09:32:56Z</time></trkpt><trkpt lat="21.82504554489534" lon="100.42391311162709"><ele>1198.0</ele><time>2026-03-29T09:32:57Z</time></trkpt><trkpt lat="21.825034748046093" lon="100.4237592998074"><ele>1198.0</ele><time>2026-03-29T09:32:58Z</time></trkpt><trkpt lat="21.825018658287412" lon="100.42360549930784"><ele>1198.0</ele><time>2026-03-29T09:32:59Z</time></trkpt><trkpt lat="21.825001949911528" lon="100.4234457771684"><ele>1198.0</ele><time>2026-03-29T09:33:00Z</time></trkpt><trkpt lat="21.82497823150256" lon="100.42328295663843"><ele>1198.0</ele><time>2026-03-29T09:33:01Z</time></trkpt><trkpt lat="21.82498999114207" lon="100.42311431217148"><ele>1198.0</ele><time>2026-03-29T09:33:02Z</time></trkpt><trkpt lat="21.82498633631004" lon="100.42294170329438"><ele>1198.0</ele><time>2026-03-29T09:33:03Z</time></trkpt><trkpt lat="21.82498261576648" lon="100.42276594690533"><ele>1197.6666666666665</ele><time>2026-03-29T09:33:04Z</time></trkpt><trkpt lat="21.82497033670631" lon="100.4225827472115"><ele>1197.3333333333333</ele><time>2026-03-29T09:33:05Z</time></trkpt><trkpt lat="21.824944200500234" lon="100.42240578820109"><ele>1197.0</ele><time>2026-03-29T09:33:06Z</time></trkpt><trkpt lat="21.824917787384607" lon="100.42222693566931"><ele>1196.6666666666667</ele><time>2026-03-29T09:33:07Z</time></trkpt><trkpt lat="21.824890347577767" lon="100.42204114243563"><ele>1196.3333333333335</ele><time>2026-03-29T09:33:08Z</time></trkpt><trkpt lat="21.824866212314" lon="100.4218738939049"><ele>1196.0</ele><time>2026-03-29T09:33:09Z</time></trkpt><trkpt lat="21.824834206961693" lon="100.4217153001596"><ele>1196.0</ele><time>2026-03-29T09:33:10Z</time></trkpt><trkpt lat="21.824801801428798" lon="100.42155310724188"><ele>1196.0</ele><time>2026-03-29T09:33:11Z</time></trkpt><trkpt lat="21.824753005259907" lon="100.4213862068815"><ele>1196.0</ele><time>2026-03-29T09:33:12Z</time></trkpt><trkpt lat="21.824692802992406" lon="100.4212349900309"><ele>1196.5</ele><time>2026-03-29T09:33:13Z</time></trkpt><trkpt lat="21.824640992376874" lon="100.42110485363023"><ele>1197.0</ele><time>2026-03-29T09:33:14Z</time></trkpt><trkpt lat="21.82459441443767" lon="100.4209878636561"><ele>1197.5</ele><time>2026-03-29T09:33:15Z</time></trkpt><trkpt lat="21.824545023805953" lon="100.4208638026528"><ele>1198.0</ele><time>2026-03-29T09:33:16Z</time></trkpt><trkpt lat="21.824504898843063" lon="100.42076301531904"><ele>1198.0</ele><time>2026-03-29T09:33:17Z</time></trkpt><trkpt lat="21.824465193543936" lon="100.42066328199807"><ele>1198.0</ele><time>2026-03-29T09:33:18Z</time></trkpt><trkpt lat="21.8244198061107" lon="100.42054928418013"><ele>1198.0</ele><time>2026-03-29T09:33:19Z</time></trkpt><trkpt lat="21.824370594228977" lon="100.4204256775293"><ele>1198.0</ele><time>2026-03-29T09:33:20Z</time></trkpt><trkpt lat="21.82431685178755" lon="100.42029067842371"><ele>1197.5</ele><time>2026-03-29T09:33:21Z</time></trkpt><trkpt lat="21.824262155678117" lon="100.42015327581485"><ele>1197.0</ele><time>2026-03-29T09:33:22Z</time></trkpt><trkpt lat="21.824204374032156" lon="100.42000812279096"><ele>1196.5</ele><time>2026-03-29T09:33:23Z</time></trkpt><trkpt lat="21.824145994948093" lon="100.41986147685003"><ele>1196.0</ele><time>2026-03-29T09:33:24Z</time></trkpt><trkpt lat="21.82408570507414" lon="100.41971002816139"><ele>1196.0</ele><time>2026-03-29T09:33:25Z</time></trkpt><trkpt lat="21.824023295755993" lon="100.41955325403103"><ele>1196.0</ele><time>2026-03-29T09:33:26Z</time></trkpt><trkpt lat="21.82395936443721" lon="100.41939265468133"><ele>1196.0</ele><time>2026-03-29T09:33:27Z</time></trkpt><trkpt lat="21.823894021580106" lon="100.41922850728679"><ele>1196.0</ele><time>2026-03-29T09:33:28Z</time></trkpt><trkpt lat="21.823828178404227" lon="100.41906310017922"><ele>1196.0</ele><time>2026-03-29T09:33:29Z</time></trkpt><trkpt lat="21.82376114398702" lon="100.41889469920964"><ele>1196.0</ele><time>2026-03-29T09:33:30Z</time></trkpt><trkpt lat="21.823692941051807" lon="100.4187233631352"><ele>1196.0</ele><time>2026-03-29T09:33:31Z</time></trkpt><trkpt lat="21.823624320535753" lon="100.41855097529792"><ele>1196.0</ele><time>2026-03-29T09:33:32Z</time></trkpt><trkpt lat="21.823555783558245" lon="100.41837879373644"><ele>1196.0</ele><time>2026-03-29T09:33:33Z</time></trkpt><trkpt lat="21.823485973121116" lon="100.41820341050828"><ele>1196.0</ele><time>2026-03-29T09:33:34Z</time></trkpt><trkpt lat="21.82341494272464" lon="100.41802496123411"><ele>1196.0</ele><time>2026-03-29T09:33:35Z</time></trkpt><trkpt lat="21.823345260456627" lon="100.41784989901744"><ele>1196.0</ele><time>2026-03-29T09:33:36Z</time></trkpt><trkpt lat="21.823273824774322" lon="100.41767042854991"><ele>1196.0</ele><time>2026-03-29T09:33:37Z</time></trkpt><trkpt lat="21.823202080236907" lon="100.41749027578811"><ele>1196.0</ele><time>2026-03-29T09:33:38Z</time></trkpt><trkpt lat="21.823128991579672" lon="100.4173067485453"><ele>1196.0</ele><time>2026-03-29T09:33:39Z</time></trkpt><trkpt lat="21.82305692379625" lon="100.41712578390903"><ele>1196.0</ele><time>2026-03-29T09:33:40Z</time></trkpt><trkpt lat="21.822983968964706" lon="100.41694258831473"><ele>1196.0</ele><time>2026-03-29T09:33:41Z</time></trkpt><trkpt lat="21.82291079642059" lon="100.41675884609609"><ele>1196.0</ele><time>2026-03-29T09:33:42Z</time></trkpt><trkpt lat="21.82283660818099" lon="100.41657254775724"><ele>1196.0</ele><time>2026-03-29T09:33:43Z</time></trkpt><trkpt lat="21.82276303726057" lon="100.416387797556"><ele>1196.0</ele><time>2026-03-29T09:33:44Z</time></trkpt><trkpt lat="21.822688753060806" lon="100.41620125431606"><ele>1196.0</ele><time>2026-03-29T09:33:45Z</time></trkpt><trkpt lat="21.822614755247013" lon="100.4160154279013"><ele>1195.6666666666667</ele><time>2026-03-29T09:33:46Z</time></trkpt><trkpt lat="21.822548748757843" lon="100.4158320495398"><ele>1195.3333333333333</ele><time>2026-03-29T09:33:47Z</time></trkpt><trkpt lat="21.82249267158608" lon="100.4156767141937"><ele>1195.0</ele><time>2026-03-29T09:33:48Z</time></trkpt><trkpt lat="21.822443279986146" lon="100.41553989687401"><ele>1195.0</ele><time>2026-03-29T09:33:49Z</time></trkpt><trkpt lat="21.822399770412932" lon="100.41541937189331"><ele>1195.0</ele><time>2026-03-29T09:33:50Z</time></trkpt><trkpt lat="21.82236524187817" lon="100.41532372526198"><ele>1195.0</ele><time>2026-03-29T09:33:51Z</time></trkpt><trkpt lat="21.82233885866383" lon="100.4152506386458"><ele>1195.0</ele><time>2026-03-29T09:33:52Z</time></trkpt><trkpt lat="21.82230839568157" lon="100.41515719343371"><ele>1195.0</ele><time>2026-03-29T09:33:54Z</time></trkpt><trkpt lat="21.822356459094" lon="100.41508824642307"><ele>1195.0</ele><time>2026-03-29T09:33:55Z</time></trkpt><trkpt lat="21.822444996856387" lon="100.41503832876852"><ele>1195.0</ele><time>2026-03-29T09:33:56Z</time></trkpt><trkpt lat="21.822487781862822" lon="100.41495111691758"><ele>1195.0</ele><time>2026-03-29T09:33:57Z</time></trkpt><trkpt lat="21.82254936008461" lon="100.41488086342011"><ele>1195.0</ele><time>2026-03-29T09:33:58Z</time></trkpt><trkpt lat="21.822594592841632" lon="100.41480054512168"><ele>1195.0</ele><time>2026-03-29T09:33:59Z</time></trkpt><trkpt lat="21.822649863252536" lon="100.41472226566667"><ele>1195.2</ele><time>2026-03-29T09:34:00Z</time></trkpt><trkpt lat="21.822710463978645" lon="100.4146395114065"><ele>1195.4</ele><time>2026-03-29T09:34:01Z</time></trkpt><trkpt lat="21.82276537022607" lon="100.41455076729223"><ele>1195.6</ele><time>2026-03-29T09:34:02Z</time></trkpt><trkpt lat="21.82282399899037" lon="100.4144757958578"><ele>1195.8</ele><time>2026-03-29T09:34:03Z</time></trkpt><trkpt lat="21.822881983531897" lon="100.41440190188442"><ele>1196.0</ele><time>2026-03-29T09:34:04Z</time></trkpt><trkpt lat="21.822935861961554" lon="100.41432502200833"><ele>1196.0</ele><time>2026-03-29T09:34:05Z</time></trkpt><trkpt lat="21.822986680403094" lon="100.41425042419229"><ele>1196.0</ele><time>2026-03-29T09:34:06Z</time></trkpt><trkpt lat="21.823042689245337" lon="100.41416910743517"><ele>1196.0</ele><time>2026-03-29T09:34:07Z</time></trkpt><trkpt lat="21.823099632621492" lon="100.41408488518493"><ele>1196.0</ele><time>2026-03-29T09:34:08Z</time></trkpt><trkpt lat="21.82315732266643" lon="100.41400535391332"><ele>1196.0</ele><time>2026-03-29T09:34:09Z</time></trkpt><trkpt lat="21.82321231719351" lon="100.41392544533079"><ele>1196.0</ele><time>2026-03-29T09:34:10Z</time></trkpt><trkpt lat="21.823272890015325" lon="100.4138402858376"><ele>1196.0</ele><time>2026-03-29T09:34:10.999Z</time></trkpt><trkpt lat="21.823335325393266" lon="100.41375211848917"><ele>1196.0</ele><time>2026-03-29T09:34:11.999Z</time></trkpt><trkpt lat="21.823406116691146" lon="100.41365967243172"><ele>1196.0</ele><time>2026-03-29T09:34:12.999Z</time></trkpt><trkpt lat="21.823467146702022" lon="100.4135665214598"><ele>1196.0</ele><time>2026-03-29T09:34:13.999Z</time></trkpt><trkpt lat="21.823519853474743" lon="100.41347849081872"><ele>1195.6666666666667</ele><time>2026-03-29T09:34:14.999Z</time></trkpt><trkpt lat="21.823574691860546" lon="100.41340301593867"><ele>1195.3333333333335</ele><time>2026-03-29T09:34:15.999Z</time></trkpt><trkpt lat="21.823623530154975" lon="100.41333407801592"><ele>1195.0</ele><time>2026-03-29T09:34:16.999Z</time></trkpt><trkpt lat="21.823668777508484" lon="100.4132674788458"><ele>1194.6666666666667</ele><time>2026-03-29T09:34:17.999Z</time></trkpt><trkpt lat="21.823712050090773" lon="100.4132040784551"><ele>1194.3333333333333</ele><time>2026-03-29T09:34:18.999Z</time></trkpt><trkpt lat="21.82375993388838" lon="100.41313777800423"><ele>1194.0</ele><time>2026-03-29T09:34:19.999Z</time></trkpt><trkpt lat="21.823808577590768" lon="100.41307167022902"><ele>1194.0</ele><time>2026-03-29T09:34:20.999Z</time></trkpt><trkpt lat="21.82385983966753" lon="100.41300638802751"><ele>1194.0</ele><time>2026-03-29T09:34:21.999Z</time></trkpt><trkpt lat="21.823909891210374" lon="100.41293979929988"><ele>1194.0</ele><time>2026-03-29T09:34:22.999Z</time></trkpt><trkpt lat="21.823972031499352" lon="100.41287490837927"><ele>1194.0</ele><time>2026-03-29T09:34:23.999Z</time></trkpt><trkpt lat="21.82402518211748" lon="100.41280322488524"><ele>1194.0</ele><time>2026-03-29T09:34:24.999Z</time></trkpt><trkpt lat="21.824076253426306" lon="100.41273434653654"><ele>1194.0</ele><time>2026-03-29T09:34:25.999Z</time></trkpt><trkpt lat="21.82412285637866" lon="100.41267149907817"><ele>1194.0</ele><time>2026-03-29T09:34:26.999Z</time></trkpt><trkpt lat="21.824165822376575" lon="100.41261355654675"><ele>1194.0</ele><time>2026-03-29T09:34:27.999Z</time></trkpt><trkpt lat="21.824241475018784" lon="100.41251099501021"><ele>1194.0</ele><time>2026-03-29T09:34:29.999Z</time></trkpt><trkpt lat="21.82429930523822" lon="100.4124256189567"><ele>1194.0</ele><time>2026-03-29T09:34:31.999Z</time></trkpt><trkpt lat="21.824361896545955" lon="100.41233321360126"><ele>1194.0</ele><time>2026-03-29T09:34:33.999Z</time></trkpt><trkpt lat="21.824405735188684" lon="100.41226849653431"><ele>1193.8333333333333</ele><time>2026-03-29T09:34:34.999Z</time></trkpt><trkpt lat="21.82445700249305" lon="100.41219322246273"><ele>1193.6666666666667</ele><time>2026-03-29T09:34:35.999Z</time></trkpt><trkpt lat="21.82450867348871" lon="100.41211738746304"><ele>1193.5</ele><time>2026-03-29T09:34:36.999Z</time></trkpt><trkpt lat="21.824559740342455" lon="100.41204244156621"><ele>1193.3333333333335</ele><time>2026-03-29T09:34:37.999Z</time></trkpt><trkpt lat="21.824606142420482" lon="100.41197434039468"><ele>1193.1666666666667</ele><time>2026-03-29T09:34:38.999Z</time></trkpt><trkpt lat="21.824648320812866" lon="100.41191243860807"><ele>1193.0</ele><time>2026-03-29T09:34:39.999Z</time></trkpt><trkpt lat="21.824687471628003" lon="100.41185498327431"><ele>1193.4</ele><time>2026-03-29T09:34:40.999Z</time></trkpt><trkpt lat="21.82476323014903" lon="100.41174380478465"><ele>1193.8</ele><time>2026-03-29T09:34:42.999Z</time></trkpt><trkpt lat="21.82481288241752" lon="100.41167093099008"><ele>1194.2</ele><time>2026-03-29T09:34:43.999Z</time></trkpt><trkpt lat="21.824869398062607" lon="100.41158799295141"><ele>1194.6</ele><time>2026-03-29T09:34:44.999Z</time></trkpt><trkpt lat="21.824930397306243" lon="100.41149848264799"><ele>1195.0</ele><time>2026-03-29T09:34:45.999Z</time></trkpt><trkpt lat="21.8249978327363" lon="100.41140123579778"><ele>1195.25</ele><time>2026-03-29T09:34:46.999Z</time></trkpt><trkpt lat="21.825061494328416" lon="100.41128845745274"><ele>1195.5</ele><time>2026-03-29T09:34:47.999Z</time></trkpt><trkpt lat="21.82513691518165" lon="100.4111762051163"><ele>1195.75</ele><time>2026-03-29T09:34:48.999Z</time></trkpt><trkpt lat="21.825220370047294" lon="100.41106675841323"><ele>1196.0</ele><time>2026-03-29T09:34:49.999Z</time></trkpt><trkpt lat="21.825304241765398" lon="100.4109487689918"><ele>1195.75</ele><time>2026-03-29T09:34:50.999Z</time></trkpt><trkpt lat="21.825388839356147" lon="100.41082392659986"><ele>1195.5</ele><time>2026-03-29T09:34:51.999Z</time></trkpt><trkpt lat="21.825472835620353" lon="100.41069258637866"><ele>1195.25</ele><time>2026-03-29T09:34:52.999Z</time></trkpt><trkpt lat="21.82556486744219" lon="100.41056522659053"><ele>1195.0</ele><time>2026-03-29T09:34:53.999Z</time></trkpt><trkpt lat="21.825657108298902" lon="100.41043559350511"><ele>1195.0</ele><time>2026-03-29T09:34:54.999Z</time></trkpt><trkpt lat="21.82574132989888" lon="100.41030966560663"><ele>1195.0</ele><time>2026-03-29T09:34:55.999Z</time></trkpt><trkpt lat="21.825835510463506" lon="100.41020165400049"><ele>1195.0</ele><time>2026-03-29T09:34:56.999Z</time></trkpt><trkpt lat="21.8259109717446" lon="100.41007213552629"><ele>1195.0</ele><time>2026-03-29T09:34:57.999Z</time></trkpt><trkpt lat="21.82599963472829" lon="100.40994542954088"><ele>1194.6666666666665</ele><time>2026-03-29T09:34:59Z</time></trkpt><trkpt lat="21.826101186347497" lon="100.40982078325263"><ele>1194.3333333333333</ele><time>2026-03-29T09:35:00Z</time></trkpt><trkpt lat="21.82619446713419" lon="100.40968676557101"><ele>1194.0</ele><time>2026-03-29T09:35:01Z</time></trkpt><trkpt lat="21.826272114466743" lon="100.40953863775931"><ele>1194.0</ele><time>2026-03-29T09:35:02Z</time></trkpt><trkpt lat="21.826381075006" lon="100.4094118234605"><ele>1194.0</ele><time>2026-03-29T09:35:03Z</time></trkpt><trkpt lat="21.826465747822347" lon="100.40926114683614"><ele>1194.0</ele><time>2026-03-29T09:35:04Z</time></trkpt><trkpt lat="21.82656458583319" lon="100.4091168875811"><ele>1194.0</ele><time>2026-03-29T09:35:05Z</time></trkpt><trkpt lat="21.82667621194383" lon="100.40898164454292"><ele>1194.0</ele><time>2026-03-29T09:35:06Z</time></trkpt><trkpt lat="21.82677688886874" lon="100.40883457270441"><ele>1194.0</ele><time>2026-03-29T09:35:07Z</time></trkpt><trkpt lat="21.826858322093205" lon="100.40867394713077"><ele>1193.75</ele><time>2026-03-29T09:35:08Z</time></trkpt><trkpt lat="21.826946773648014" lon="100.40853778478032"><ele>1193.5</ele><time>2026-03-29T09:35:09Z</time></trkpt><trkpt lat="21.827030677138627" lon="100.40841600856976"><ele>1193.25</ele><time>2026-03-29T09:35:10Z</time></trkpt><trkpt lat="21.827108584574997" lon="100.40830024834106"><ele>1193.0</ele><time>2026-03-29T09:35:11Z</time></trkpt><trkpt lat="21.82718297051504" lon="100.40818993180139"><ele>1193.0</ele><time>2026-03-29T09:35:12Z</time></trkpt><trkpt lat="21.82725874726834" lon="100.40809117961831"><ele>1193.0</ele><time>2026-03-29T09:35:13Z</time></trkpt><trkpt lat="21.827329124031014" lon="100.4079883758846"><ele>1193.0</ele><time>2026-03-29T09:35:14Z</time></trkpt><trkpt lat="21.827403846548105" lon="100.40788176930175"><ele>1193.0</ele><time>2026-03-29T09:35:15Z</time></trkpt><trkpt lat="21.82747953843165" lon="100.40776917570658"><ele>1193.0</ele><time>2026-03-29T09:35:16Z</time></trkpt><trkpt lat="21.82754070382334" lon="100.40766496495058"><ele>1193.0</ele><time>2026-03-29T09:35:17Z</time></trkpt><trkpt lat="21.827606100411714" lon="100.40757370826786"><ele>1193.0</ele><time>2026-03-29T09:35:18Z</time></trkpt><trkpt lat="21.82765383683874" lon="100.4074791316596"><ele>1193.0</ele><time>2026-03-29T09:35:19Z</time></trkpt><trkpt lat="21.82770703263109" lon="100.40738843752804"><ele>1193.0</ele><time>2026-03-29T09:35:20Z</time></trkpt><trkpt lat="21.82776120398659" lon="100.40730241191412"><ele>1193.0</ele><time>2026-03-29T09:35:21Z</time></trkpt><trkpt lat="21.827818998244464" lon="100.40721222682039"><ele>1193.0</ele><time>2026-03-29T09:35:22Z</time></trkpt><trkpt lat="21.827882267848885" lon="100.40711358158215"><ele>1193.0</ele><time>2026-03-29T09:35:23Z</time></trkpt><trkpt lat="21.827942033823522" lon="100.40701276238157"><ele>1193.0</ele><time>2026-03-29T09:35:24Z</time></trkpt><trkpt lat="21.827993267006917" lon="100.40692175534492"><ele>1193.0</ele><time>2026-03-29T09:35:25Z</time></trkpt><trkpt lat="21.82804653909" lon="100.40683763220532"><ele>1193.0</ele><time>2026-03-29T09:35:26Z</time></trkpt><trkpt lat="21.82809658966721" lon="100.4067612976792"><ele>1193.0</ele><time>2026-03-29T09:35:27Z</time></trkpt><trkpt lat="21.828153746653157" lon="100.4066995831434"><ele>1193.0</ele><time>2026-03-29T09:35:28Z</time></trkpt><trkpt lat="21.828215870333295" lon="100.4066427114137"><ele>1193.0</ele><time>2026-03-29T09:35:29Z</time></trkpt><trkpt lat="21.82827480851008" lon="100.4065870686045"><ele>1193.0</ele><time>2026-03-29T09:35:30Z</time></trkpt><trkpt lat="21.828385871959675" lon="100.40648490358141"><ele>1193.0</ele><time>2026-03-29T09:35:32Z</time></trkpt><trkpt lat="21.828437657239025" lon="100.40643677870429"><ele>1193.0</ele><time>2026-03-29T09:35:33Z</time></trkpt><trkpt lat="21.828488608991155" lon="100.40639281345962"><ele>1194.0</ele><time>2026-03-29T09:35:34Z</time></trkpt></trkseg></trk></gpx>